Time;durP1;ratioP1;P1;durP2;ratioP2;P2;SDS_P1;SDS_P2;PMS_P1;PMS_P2;Temp;Humidity;BMP_temperature;BMP_pressure;BME280_temperature;BME280_humidity;BME280_pressure;Samples;Min_cycle;Max_cycle;Signal;HPM_P1;HPM_P2
2022/04/09 00:01:55;;;;;;;;;;;;;;;;;;5033479;28;19917;-54
2022/04/09 00:04:20;;;;;;;;;;;;;;;;;;5033355;28;20265;-55
2022/04/09 00:06:46;;;;;;;;;;;;;;;;;;5034088;28;20197;-54
2022/04/09 00:09:11;;;;;;;;;;;;;;;;;;5033330;28;19925;-56
2022/04/09 00:11:36;;;;;;;;;;;;;;;;;;5065356;28;19910;-55
2022/04/09 00:14:01;;;;;;;;;;;;;;;;;;5034024;28;19909;-57
2022/04/09 00:16:26;;;;;;;;;;;;;;;;;;5033236;28;19966;-55
2022/04/09 00:18:52;;;;;;;;;;;;;;;;;;5033929;28;19952;-55
2022/04/09 00:21:17;;;;;;;;;;;;;;;;;;5037539;28;20265;-56
2022/04/09 00:23:43;;;;;;;;;;;;;;;;;;5052315;28;19955;-55
2022/04/09 00:26:08;;;;;;;;;;;;;;;;;;5069438;28;19927;-55
2022/04/09 00:28:33;;;;;;;;;;;;;;;;;;5053203;28;20230;-56
2022/04/09 00:30:58;;;;;;;;;;;;;;;;;;5053871;28;20110;-55
2022/04/09 00:33:24;;;;;;;;;;;;;;;;;;5068232;28;20265;-57
2022/04/09 00:35:49;;;;;;;;;;;;;;;;;;5068569;28;20234;-57
2022/04/09 00:38:15;;;;;;;;;;;;;;;;;;5069611;28;19948;-57
2022/04/09 00:40:40;;;;;;;;;;;;;;;;;;5068195;28;19948;-55
2022/04/09 00:43:05;;;;;;;;;;;;;;;;;;5068587;28;19913;-56
2022/04/09 00:45:31;;;;;;;;;;;;;;;;;;5068069;28;19909;-56
2022/04/09 00:47:56;;;;;;;;;;;;;;;;;;5052608;28;19924;-56
2022/04/09 00:50:21;;;;;;;;;;;;;;;;;;5068784;28;19913;-56
2022/04/09 00:52:47;;;;;;;;;;;;;;;;;;5052473;28;19913;-57
2022/04/09 00:55:12;;;;;;;;;;;;;;;;;;5069820;28;19928;-57
2022/04/09 00:57:37;;;;;;;;;;;;;;;;;;5071590;28;19909;-57
2022/04/09 01:00:05;;;;;;;;;;;;;;;;;;5056230;28;20432;-57
2022/04/09 01:02:30;;;;;;;;;;;;;;;;;;5072347;28;19905;-57
2022/04/09 01:04:56;;;;;;;;;;;;;;;;;;5071671;28;19909;-57
2022/04/09 01:07:21;;;;;;;;;;;;;;;;;;5072884;28;19909;-56
2022/04/09 01:09:46;;;;;;;;;;;;;;;;;;5055830;28;20361;-57
2022/04/09 01:12:11;;;;;;;;;;;;;;;;;;5071526;28;20007;-57
2022/04/09 01:14:37;;;;;;;;;;;;;;;;;;5056251;28;19912;-57
2022/04/09 01:17:02;;;;;;;;;;;;;;;;;;5071387;28;19909;-57
2022/04/09 01:19:27;;;;;;;;;;;;;;;;;;5056261;28;19943;-57
2022/04/09 01:21:54;;;;;;;;;;;;;;;;;;5071401;28;19965;-56
2022/04/09 01:24:19;;;;;;;;;;;;;;;;;;5071294;28;19909;-57
2022/04/09 01:26:49;;;;;;;;;;;;;;;;;;5072472;28;19909;-57
2022/04/09 01:29:30;;;;;;;;;;;;;;;;;;5070983;28;19998;-57
2022/04/09 01:31:55;;;;;;;;;;;;;;;;;;5054758;28;19908;-57
2022/04/09 01:34:21;;;;;;;;;;;;;;;;;;5071523;28;20257;-57
2022/04/09 01:36:46;;;;;;;;;;;;;;;;;;5071341;28;19975;-57
2022/04/09 01:39:12;;;;;;;;;;;;;;;;;;5056623;28;19909;-57
2022/04/09 01:41:37;;;;;;;;;;;;;;;;;;5054421;28;20338;-57
2022/04/09 01:44:03;;;;;;;;;;;;;;;;;;5071465;28;19951;-57
2022/04/09 01:46:29;;;;;;;;;;;;;;;;;;5052376;28;20254;-57
2022/04/09 01:48:54;;;;;;;;;;;;;;;;;;5067328;28;19920;-58
2022/04/09 01:51:20;;;;;;;;;;;;;;;;;;5051358;28;19948;-57
2022/04/09 01:53:45;;;;;;;;;;;;;;;;;;5035386;28;19920;-57
2022/04/09 01:56:10;;;;;;;;;;;;;;;;;;5035246;28;19909;-57
2022/04/09 01:58:38;;;;;;;;;;;;;;;;;;5068206;28;19917;-57
2022/04/09 02:01:04;;;;;;;;;;;;;;;;;;5064672;28;20051;-57
2022/04/09 02:03:30;;;;;;;;;;;;;;;;;;5048930;28;19909;-57
2022/04/09 02:05:55;;;;;;;;;;;;;;;;;;5050325;28;19944;-57
2022/04/09 02:08:21;;;;;;;;;;;;;;;;;;5067060;28;21306;-57
2022/04/09 02:10:47;;;;;;;;;;;;;;;;;;5048804;28;19940;-57
2022/04/09 02:13:13;;;;;;;;;;;;;;;;;;5050323;28;19983;-57
2022/04/09 02:15:39;;;;;;;;;;;;;;;;;;5051206;28;20335;-57
2022/04/09 02:18:04;;;;;;;;;;;;;;;;;;5033700;28;19905;-57
2022/04/09 02:20:30;;;;;;;;;;;;;;;;;;5033707;28;19940;-57
2022/04/09 02:22:56;;;;;;;;;;;;;;;;;;5035001;28;20370;-57
2022/04/09 02:25:21;;;;;;;;;;;;;;;;;;5034677;28;19963;-57
2022/04/09 02:27:46;;;;;;;;;;;;;;;;;;5050824;28;19956;-57
2022/04/09 02:30:15;;;;;;;;;;;;;;;;;;5050445;28;19913;-57
2022/04/09 02:32:44;;;;;;;;;;;;;;;;;;5067124;28;19935;-57
2022/04/09 02:35:11;;;;;;;;;;;;;;;;;;5050354;28;19909;-57
2022/04/09 02:37:37;;;;;;;;;;;;;;;;;;5050497;28;19913;-57
2022/04/09 02:40:02;;;;;;;;;;;;;;;;;;5050344;28;19909;-57
2022/04/09 02:42:28;;;;;;;;;;;;;;;;;;5049754;28;20050;-57
2022/04/09 02:44:54;;;;;;;;;;;;;;;;;;5050213;28;19909;-57
2022/04/09 02:47:19;;;;;;;;;;;;;;;;;;5033533;28;19909;-57
2022/04/09 02:49:44;;;;;;;;;;;;;;;;;;5049670;28;20317;-57
2022/04/09 02:52:09;;;;;;;;;;;;;;;;;;5050512;28;20290;-57
2022/04/09 02:54:35;;;;;;;;;;;;;;;;;;5034067;28;19913;-57
2022/04/09 02:57:00;;;;;;;;;;;;;;;;;;5049598;28;19905;-57
2022/04/09 02:59:30;;;;;;;;;;;;;;;;;;5050174;28;20254;-57
2022/04/09 03:01:56;;;;;;;;;;;;;;;;;;5033948;28;19909;-57
2022/04/09 03:04:22;;;;;;;;;;;;;;;;;;5033758;28;19995;-57
2022/04/09 03:06:47;;;;;;;;;;;;;;;;;;5049396;28;20331;-57
2022/04/09 03:09:13;;;;;;;;;;;;;;;;;;5032686;28;19909;-57
2022/04/09 03:11:39;;;;;;;;;;;;;;;;;;5033079;28;19916;-57
2022/04/09 03:14:04;;;;;;;;;;;;;;;;;;5033720;28;19917;-57
2022/04/09 03:16:29;;;;;;;;;;;;;;;;;;5049595;28;20004;-57
2022/04/09 03:18:55;;;;;;;;;;;;;;;;;;5048807;28;19909;-57
2022/04/09 03:21:20;;;;;;;;;;;;;;;;;;5049360;28;20400;-58
2022/04/09 03:23:46;;;;;;;;;;;;;;;;;;5049552;28;20043;-58
2022/04/09 03:26:11;;;;;;;;;;;;;;;;;;5049165;28;19924;-57
2022/04/09 03:28:40;;;;;;;;;;;;;;;;;;5032907;28;20338;-57
2022/04/09 03:31:06;;;;;;;;;;;;;;;;;;5032113;28;19916;-57
2022/04/09 03:33:33;;;;;;;;;;;;;;;;;;5048784;28;19917;-57
2022/04/09 03:36:02;;;;;;;;;;;;;;;;;;5049398;28;19909;-57
2022/04/09 03:38:28;;;;;;;;;;;;;;;;;;5048824;28;19909;-57
2022/04/09 03:40:55;;;;;;;;;;;;;;;;;;5049693;28;19963;-57
2022/04/09 03:43:28;;;;;;;;;;;;;;;;;;5049942;28;19905;-57
2022/04/09 03:45:54;;;;;;;;;;;;;;;;;;5049252;28;19996;-57
2022/04/09 03:48:19;;;;;;;;;;;;;;;;;;5049232;28;19971;-57
2022/04/09 03:50:44;;;;;;;;;;;;;;;;;;5049200;28;19913;-57
2022/04/09 03:53:19;;;;;;;;;;;;;;;;;;5048930;28;22086;-57
2022/04/09 03:55:44;;;;;;;;;;;;;;;;;;5032910;28;20007;-58
2022/04/09 03:58:10;;;;;;;;;;;;;;;;;;5048546;28;19962;-57
2022/04/09 04:00:36;;;;;;;;;;;;;;;;;;5049009;28;19993;-57
2022/04/09 04:03:01;;;;;;;;;;;;;;;;;;5033274;28;19960;-57
2022/04/09 04:05:30;;;;;;;;;;;;;;;;;;5049189;28;20183;-57
2022/04/09 04:07:55;;;;;;;;;;;;;;;;;;5049245;28;20358;-57
2022/04/09 04:10:22;;;;;;;;;;;;;;;;;;5058057;28;19976;-57
2022/04/09 04:12:55;;;;;;;;;;;;;;;;;;5042981;28;20270;-57
2022/04/09 04:15:26;;;;;;;;;;;;;;;;;;5065004;28;20366;-57
2022/04/09 04:17:51;;;;;;;;;;;;;;;;;;5065760;28;19916;-57
2022/04/09 04:20:21;;;;;;;;;;;;;;;;;;5065594;28;19913;-57
2022/04/09 04:22:51;;;;;;;;;;;;;;;;;;5031908;28;19916;-57
2022/04/09 04:25:16;;;;;;;;;;;;;;;;;;5078908;28;19908;-57
2022/04/09 04:27:42;;;;;;;;;;;;;;;;;;5068878;28;19908;-57
2022/04/09 04:30:07;;;;;;;;;;;;;;;;;;5064808;28;19916;-57
2022/04/09 04:32:33;;;;;;;;;;;;;;;;;;5072667;28;19912;-57
2022/04/09 04:34:59;;;;;;;;;;;;;;;;;;5072521;28;19916;-57
2022/04/09 04:37:24;;;;;;;;;;;;;;;;;;5055684;28;19912;-57
2022/04/09 04:39:50;;;;;;;;;;;;;;;;;;5072851;28;19970;-57
2022/04/09 04:42:15;;;;;;;;;;;;;;;;;;5070238;28;19916;-57
2022/04/09 04:44:40;;;;;;;;;;;;;;;;;;5072270;28;19905;-57
2022/04/09 04:47:05;;;;;;;;;;;;;;;;;;5072042;28;19995;-57
2022/04/09 04:49:30;;;;;;;;;;;;;;;;;;5072751;28;19947;-57
2022/04/09 04:52:01;;;;;;;;;;;;;;;;;;5070712;28;19916;-57
2022/04/09 04:54:27;;;;;;;;;;;;;;;;;;5071756;28;20300;-57
2022/04/09 04:56:52;;;;;;;;;;;;;;;;;;5072362;28;19909;-57
2022/04/09 04:59:18;;;;;;;;;;;;;;;;;;5055247;28;19905;-57
2022/04/09 05:01:43;;;;;;;;;;;;;;;;;;5049555;28;19913;-57
2022/04/09 05:04:10;;;;;;;;;;;;;;;;;;5068919;28;19909;-57
2022/04/09 05:06:38;;;;;;;;;;;;;;;;;;5066966;28;19912;-57
2022/04/09 05:09:05;;;;;;;;;;;;;;;;;;5069355;28;19952;-57
2022/04/09 05:11:56;;;;;;;;;;;;;;;;;;5036056;28;19905;-57
2022/04/09 05:14:30;;;;;;;;;;;;;;;;;;5068435;28;19917;-57
2022/04/09 05:17:00;;;;;;;;;;;;;;;;;;5068707;28;19909;-57
2022/04/09 05:19:27;;;;;;;;;;;;;;;;;;5032359;28;19913;-57
2022/04/09 05:22:00;;;;;;;;;;;;;;;;;;5052267;28;19913;-57
2022/04/09 05:24:29;;;;;;;;;;;;;;;;;;5078123;28;19908;-58
2022/04/09 05:26:54;;;;;;;;;;;;;;;;;;5071490;28;19935;-57
2022/04/09 05:29:22;;;;;;;;;;;;;;;;;;5071527;28;19909;-57
2022/04/09 05:31:48;;;;;;;;;;;;;;;;;;5071203;28;19909;-57
2022/04/09 05:34:14;;;;;;;;;;;;;;;;;;5063019;28;20269;-57
2022/04/09 05:36:40;;;;;;;;;;;;;;;;;;5068304;28;19905;-57
2022/04/09 05:39:05;;;;;;;;;;;;;;;;;;5076485;28;20395;-57
2022/04/09 05:41:33;;;;;;;;;;;;;;;;;;5070485;28;20313;-57
2022/04/09 05:43:58;;;;;;;;;;;;;;;;;;5054113;28;20411;-57
2022/04/09 05:46:24;;;;;;;;;;;;;;;;;;5054755;28;20427;-58
2022/04/09 05:48:49;;;;;;;;;;;;;;;;;;5040608;28;19909;-57
2022/04/09 05:51:15;;;;;;;;;;;;;;;;;;5051360;28;19996;-57
2022/04/09 05:53:44;;;;;;;;;;;;;;;;;;5066517;28;19932;-57
2022/04/09 05:56:10;;;;;;;;;;;;;;;;;;5048902;28;20280;-57
2022/04/09 05:58:41;;;;;;;;;;;;;;;;;;5046571;28;20004;-57
2022/04/09 06:01:09;;;;;;;;;;;;;;;;;;5068107;28;19909;-57
2022/04/09 06:03:35;;;;;;;;;;;;;;;;;;5064606;28;20281;-57
2022/04/09 06:06:00;;;;;;;;;;;;;;;;;;5034500;28;19935;-57
2022/04/09 06:08:34;;;;;;;;;;;;;;;;;;5068578;28;19913;-57
2022/04/09 06:11:03;;;;;;;;;;;;;;;;;;5067590;28;19909;-57
2022/04/09 06:13:28;;;;;;;;;;;;;;;;;;5068779;28;19913;-57
2022/04/09 06:15:54;;;;;;;;;;;;;;;;;;5065578;28;19970;-57
2022/04/09 06:18:23;;;;;;;;;;;;;;;;;;5046500;28;19951;-58
2022/04/09 06:20:48;;;;;;;;;;;;;;;;;;5050956;28;19917;-57
2022/04/09 06:23:16;;;;;;;;;;;;;;;;;;5053630;28;20350;-58
2022/04/09 06:25:41;;;;;;;;;;;;;;;;;;5067082;28;19905;-57
2022/04/09 06:28:08;;;;;;;;;;;;;;;;;;5070491;28;19909;-57
2022/04/09 06:30:35;;;;;;;;;;;;;;;;;;5070235;28;20358;-58
2022/04/09 06:33:06;;;;;;;;;;;;;;;;;;5051041;28;20424;-57
2022/04/09 06:35:33;;;;;;;;;;;;;;;;;;5062791;28;19913;-57
2022/04/09 06:37:58;;;;;;;;;;;;;;;;;;5078076;28;19954;-57
2022/04/09 06:40:26;;;;;;;;;;;;;;;;;;5073578;28;19912;-57
2022/04/09 06:42:51;;;;;;;;;;;;;;;;;;5074141;28;19915;-58
2022/04/09 06:45:27;;;;;;;;;;;;;;;;;;5072901;28;19912;-57
2022/04/09 06:48:18;;;;;;;;;;;;;;;;;;5074499;28;19931;-57
2022/04/09 06:50:59;;;;;;;;;;;;;;;;;;5065277;28;19916;-57
2022/04/09 06:53:25;;;;;;;;;;;;;;;;;;5050228;28;20088;-57
2022/04/09 06:55:50;;;;;;;;;;;;;;;;;;5066902;28;19952;-57
2022/04/09 06:58:15;;;;;;;;;;;;;;;;;;5035327;28;19952;-57
2022/04/09 07:00:40;;;;;;;;;;;;;;;;;;5066066;28;19948;-57
2022/04/09 07:03:06;;;;;;;;;;;;;;;;;;5066965;28;19909;-57
2022/04/09 07:05:32;;;;;;;;;;;;;;;;;;5066933;28;20416;-57
2022/04/09 07:07:57;;;;;;;;;;;;;;;;;;5034384;28;20036;-57
2022/04/09 07:10:22;;;;;;;;;;;;;;;;;;5034817;28;19909;-57
2022/04/09 07:12:47;;;;;;;;;;;;;;;;;;5034231;28;19913;-57
2022/04/09 07:15:12;;;;;;;;;;;;;;;;;;5034232;28;19913;-58
2022/04/09 07:17:38;;;;;;;;;;;;;;;;;;5033405;28;19909;-58
2022/04/09 07:20:03;;;;;;;;;;;;;;;;;;5043605;28;20357;-57
2022/04/09 07:22:29;;;;;;;;;;;;;;;;;;5052360;28;20341;-57
2022/04/09 07:24:55;;;;;;;;;;;;;;;;;;5054035;28;19908;-57
2022/04/09 07:27:20;;;;;;;;;;;;;;;;;;5053779;28;19909;-58
2022/04/09 07:29:45;;;;;;;;;;;;;;;;;;5052401;28;20288;-58
2022/04/09 07:32:11;;;;;;;;;;;;;;;;;;5066668;28;19913;-58
2022/04/09 07:34:36;;;;;;;;;;;;;;;;;;5054252;28;19913;-58
2022/04/09 07:37:03;;;;;;;;;;;;;;;;;;5053620;28;19967;-58
2022/04/09 07:39:28;;;;;;;;;;;;;;;;;;5046109;28;19964;-58
2022/04/09 07:41:54;;;;;;;;;;;;;;;;;;5050708;28;20389;-57
2022/04/09 07:44:19;;;;;;;;;;;;;;;;;;5053799;28;19916;-58
2022/04/09 07:46:45;;;;;;;;;;;;;;;;;;5054491;28;20265;-58
2022/04/09 07:49:10;;;;;;;;;;;;;;;;;;5053734;28;19916;-57
2022/04/09 07:51:35;;;;;;;;;;;;;;;;;;5052662;28;19905;-58
2022/04/09 07:54:01;;;;;;;;;;;;;;;;;;5054285;28;19917;-58
2022/04/09 07:56:26;;;;;;;;;;;;;;;;;;5052192;28;19913;-58
2022/04/09 07:58:51;;;;;;;;;;;;;;;;;;5053768;28;20003;-58
2022/04/09 08:01:16;;;;;;;;;;;;;;;;;;5053508;28;19974;-58
2022/04/09 08:03:42;;;;;;;;;;;;;;;;;;5053775;28;19952;-58
2022/04/09 08:06:07;;;;;;;;;;;;;;;;;;5056685;28;19999;-58
2022/04/09 08:08:32;;;;;;;;;;;;;;;;;;5057605;28;19908;-58
2022/04/09 08:10:57;;;;;;;;;;;;;;;;;;5057192;28;19905;-58
2022/04/09 08:13:23;;;;;;;;;;;;;;;;;;5056297;28;19963;-57
2022/04/09 08:15:48;;;;;;;;;;;;;;;;;;5057779;28;19980;-58
2022/04/09 08:18:13;;;;;;;;;;;;;;;;;;5056479;28;19916;-57
2022/04/09 08:20:38;;;;;;;;;;;;;;;;;;5057349;28;20269;-57
2022/04/09 08:23:04;;;;;;;;;;;;;;;;;;5057722;28;20384;-57
2022/04/09 08:25:29;;;;;;;;;;;;;;;;;;5034604;28;19955;-57
2022/04/09 08:27:54;;;;;;;;;;;;;;;;;;5037267;28;19951;-57
2022/04/09 08:30:19;;;;;;;;;;;;;;;;;;5037621;28;19992;-57
2022/04/09 08:32:45;;;;;;;;;;;;;;;;;;5063165;28;19924;-57
2022/04/09 08:35:10;;;;;;;;;;;;;;;;;;5057228;28;19908;-57
2022/04/09 08:37:35;;;;;;;;;;;;;;;;;;5072163;28;19909;-58
2022/04/09 08:40:00;;;;;;;;;;;;;;;;;;5056985;28;19909;-58
2022/04/09 08:42:27;;;;;;;;;;;;;;;;;;5057438;28;19909;-58
2022/04/09 08:44:53;;;;;;;;;;;;;;;;;;5056049;28;19913;-58
2022/04/09 08:47:18;;;;;;;;;;;;;;;;;;5059463;28;19932;-58
2022/04/09 08:49:43;;;;;;;;;;;;;;;;;;5052349;28;19909;-58
2022/04/09 08:52:08;;;;;;;;;;;;;;;;;;5036921;28;19905;-58
2022/04/09 08:54:34;;;;;;;;;;;;;;;;;;5052685;28;20110;-58
2022/04/09 08:56:59;;;;;;;;;;;;;;;;;;5036604;28;19913;-58
2022/04/09 08:59:25;;;;;;;;;;;;;;;;;;5037089;28;20289;-59
2022/04/09 09:01:50;;;;;;;;;;;;;;;;;;5036595;28;20009;-58
2022/04/09 09:04:15;;;;;;;;;;;;;;;;;;5036626;28;19956;-58
2022/04/09 09:06:44;;;;;;;;;;;;;;;;;;5036994;28;19991;-58
2022/04/09 09:09:14;;;;;;;;;;;;;;;;;;5047026;28;19905;-58
2022/04/09 09:11:39;;;;;;;;;;;;;;;;;;5056761;28;19908;-58
2022/04/09 09:14:05;;;;;;;;;;;;;;;;;;5056515;28;20264;-58
2022/04/09 09:16:30;;;;;;;;;;;;;;;;;;5056471;28;20242;-58
2022/04/09 09:18:55;;;;;;;;;;;;;;;;;;5056422;28;20380;-58
2022/04/09 09:21:25;;;;;;;;;;;;;;;;;;5055013;28;19942;-58
2022/04/09 09:23:51;;;;;;;;;;;;;;;;;;5055046;28;20004;-58
2022/04/09 09:26:19;;;;;;;;;;;;;;;;;;5055962;28;20420;-58
2022/04/09 09:28:44;;;;;;;;;;;;;;;;;;5055849;28;19931;-58
2022/04/09 09:31:11;;;;;;;;;;;;;;;;;;5055335;28;20265;-58
2022/04/09 09:33:37;;;;;;;;;;;;;;;;;;5048786;28;20250;-58
2022/04/09 09:36:02;;;;;;;;;;;;;;;;;;5036065;28;19917;-59
2022/04/09 09:38:27;;;;;;;;;;;;;;;;;;5036427;28;20349;-58
2022/04/09 09:40:52;;;;;;;;;;;;;;;;;;5035952;28;19916;-58
2022/04/09 09:43:18;;;;;;;;;;;;;;;;;;5036756;28;19958;-58
2022/04/09 09:45:43;;;;;;;;;;;;;;;;;;5036139;28;19909;-58
2022/04/09 09:48:08;;;;;;;;;;;;;;;;;;5035608;28;19913;-58
2022/04/09 09:50:33;;;;;;;;;;;;;;;;;;5036539;28;19917;-59
2022/04/09 09:52:58;;;;;;;;;;;;;;;;;;5035850;28;19920;-58
2022/04/09 09:55:25;;;;;;;;;;;;;;;;;;5035816;28;19913;-58
2022/04/09 09:57:52;;;;;;;;;;;;;;;;;;5035474;28;19905;-58
2022/04/09 10:00:18;;;;;;;;;;;;;;;;;;5035625;28;19975;-58
2022/04/09 10:02:44;;;;;;;;;;;;;;;;;;5036150;28;19909;-58
2022/04/09 10:05:09;;;;;;;;;;;;;;;;;;5035506;28;19915;-58
2022/04/09 10:07:34;;;;;;;;;;;;;;;;;;5035963;28;19949;-58
2022/04/09 10:10:00;;;;;;;;;;;;;;;;;;5035060;28;20285;-58
2022/04/09 10:12:25;;;;;;;;;;;;;;;;;;5035555;28;19913;-58
2022/04/09 10:14:50;;;;;;;;;;;;;;;;;;5035735;28;19917;-58
2022/04/09 10:17:16;;;;;;;;;;;;;;;;;;5035277;28;19909;-58
2022/04/09 10:19:41;;;;;;;;;;;;;;;;;;5035409;28;19967;-58
2022/04/09 10:22:06;;;;;;;;;;;;;;;;;;5032804;28;19951;-58
2022/04/09 10:24:32;;;;;;;;;;;;;;;;;;5045730;28;19908;-58
2022/04/09 10:26:59;;;;;;;;;;;;;;;;;;5070877;28;19909;-58
2022/04/09 10:29:24;;;;;;;;;;;;;;;;;;5054568;28;19954;-58
2022/04/09 10:31:51;;;;;;;;;;;;;;;;;;5053123;28;19966;-58
2022/04/09 10:34:16;;;;;;;;;;;;;;;;;;5054952;28;19912;-58
2022/04/09 10:36:42;;;;;;;;;;;;;;;;;;5055181;28;19913;-58
2022/04/09 10:39:07;;;;;;;;;;;;;;;;;;5070732;28;19909;-58
2022/04/09 10:41:32;;;;;;;;;;;;;;;;;;5054908;28;19905;-58
2022/04/09 10:43:58;;;;;;;;;;;;;;;;;;5055214;28;19909;-58
2022/04/09 10:46:24;;;;;;;;;;;;;;;;;;5054977;28;20269;-58
2022/04/09 10:48:49;;;;;;;;;;;;;;;;;;5054715;28;20312;-58
2022/04/09 10:51:14;;;;;;;;;;;;;;;;;;5070317;28;20400;-58
2022/04/09 10:53:40;;;;;;;;;;;;;;;;;;5054584;28;19963;-58
2022/04/09 10:56:05;;;;;;;;;;;;;;;;;;5070560;28;20031;-58
2022/04/09 10:58:30;;;;;;;;;;;;;;;;;;5054547;28;20003;-58
2022/04/09 11:00:55;;;;;;;;;;;;;;;;;;5047353;28;20016;-58
2022/04/09 11:03:21;;;;;;;;;;;;;;;;;;5050102;28;19909;-58
2022/04/09 11:05:46;;;;;;;;;;;;;;;;;;5034487;28;20381;-58
2022/04/09 11:08:14;;;;;;;;;;;;;;;;;;5035152;28;19909;-58
2022/04/09 11:10:40;;;;;;;;;;;;;;;;;;5032560;28;19909;-58
2022/04/09 11:13:12;;;;;;;;;;;;;;;;;;5049533;28;19913;-58
2022/04/09 11:15:38;;;;;;;;;;;;;;;;;;5035010;28;19915;-58
2022/04/09 11:18:03;;;;;;;;;;;;;;;;;;5033020;28;19916;-58
2022/04/09 11:20:28;;;;;;;;;;;;;;;;;;5034619;28;19913;-58
2022/04/09 11:22:55;;;;;;;;;;;;;;;;;;5034072;28;19905;-58
2022/04/09 11:25:21;;;;;;;;;;;;;;;;;;5049687;28;19979;-58
2022/04/09 11:27:46;;;;;;;;;;;;;;;;;;5034386;28;20269;-58
2022/04/09 11:30:12;;;;;;;;;;;;;;;;;;5034733;28;20384;-58
2022/04/09 11:32:37;;;;;;;;;;;;;;;;;;5054281;28;19909;-58
2022/04/09 11:35:04;;;;;;;;;;;;;;;;;;5053939;28;19948;-58
2022/04/09 11:37:30;;;;;;;;;;;;;;;;;;5054048;28;19931;-58
2022/04/09 11:39:55;;;;;;;;;;;;;;;;;;5054200;28;19912;-58
2022/04/09 11:42:20;;;;;;;;;;;;;;;;;;5053514;28;19905;-58
2022/04/09 11:44:45;;;;;;;;;;;;;;;;;;5054017;28;20061;-58
2022/04/09 11:47:11;;;;;;;;;;;;;;;;;;5053449;28;19987;-58
2022/04/09 11:49:36;;;;;;;;;;;;;;;;;;5053623;28;19910;-58
2022/04/09 11:52:01;;;;;;;;;;;;;;;;;;5054648;28;19912;-58
2022/04/09 11:54:27;;;;;;;;;;;;;;;;;;5038772;28;19912;-58
2022/04/09 11:56:52;;;;;;;;;;;;;;;;;;5033940;28;19909;-58
2022/04/09 11:59:17;;;;;;;;;;;;;;;;;;5048783;28;19955;-58
2022/04/09 12:01:42;;;;;;;;;;;;;;;;;;5053537;28;19909;-58
2022/04/09 12:04:08;;;;;;;;;;;;;;;;;;5054286;28;19962;-58
2022/04/09 12:06:33;;;;;;;;;;;;;;;;;;5053649;28;19913;-58
2022/04/09 12:08:58;;;;;;;;;;;;;;;;;;5053641;28;19909;-58
2022/04/09 12:11:23;;;;;;;;;;;;;;;;;;5053179;28;19909;-58
2022/04/09 12:13:49;;;;;;;;;;;;;;;;;;5053273;28;19916;-58
2022/04/09 12:16:14;;;;;;;;;;;;;;;;;;5054148;28;19909;-58
2022/04/09 12:18:39;;;;;;;;;;;;;;;;;;5053226;28;20341;-58
2022/04/09 12:21:07;;;;;;;;;;;;;;;;;;5053408;28;19924;-59
2022/04/09 12:23:32;;;;;;;;;;;;;;;;;;5069243;28;19905;-59
2022/04/09 12:25:57;;;;;;;;;;;;;;;;;;5064145;28;20317;-58
2022/04/09 12:28:23;;;;;;;;;;;;;;;;;;5074025;28;19916;-58
2022/04/09 12:30:49;;;;;;;;;;;;;;;;;;5073131;28;19912;-58
2022/04/09 12:33:14;;;;;;;;;;;;;;;;;;5073001;28;19919;-59
2022/04/09 12:35:40;;;;;;;;;;;;;;;;;;5073331;28;19962;-58
2022/04/09 12:38:05;;;;;;;;;;;;;;;;;;5073441;28;19909;-59
2022/04/09 12:40:32;;;;;;;;;;;;;;;;;;5073337;28;20299;-59
2022/04/09 12:42:57;;;;;;;;;;;;;;;;;;5071952;28;19958;-58
2022/04/09 12:45:24;;;;;;;;;;;;;;;;;;5073237;28;19913;-59
2022/04/09 12:47:49;;;;;;;;;;;;;;;;;;5073245;28;19961;-59
2022/04/09 12:50:15;;;;;;;;;;;;;;;;;;5073090;28;20271;-59
2022/04/09 12:52:40;;;;;;;;;;;;;;;;;;5077287;28;19908;-58
2022/04/09 12:55:05;;;;;;;;;;;;;;;;;;5076414;28;19916;-59
2022/04/09 12:57:30;;;;;;;;;;;;;;;;;;5066520;28;19913;-58
2022/04/09 12:59:56;;;;;;;;;;;;;;;;;;5058129;28;19916;-58
2022/04/09 13:02:21;;;;;;;;;;;;;;;;;;5072515;28;19916;-57
2022/04/09 13:04:46;;;;;;;;;;;;;;;;;;5055891;28;19908;-55
2022/04/09 13:07:12;;;;;;;;;;;;;;;;;;5056309;28;19913;-56
2022/04/09 13:09:37;;;;;;;;;;;;;;;;;;5056481;28;19908;-56
2022/04/09 13:12:02;;;;;;;;;;;;;;;;;;5056812;28;19915;-56
2022/04/09 13:14:28;;;;;;;;;;;;;;;;;;5056062;28;19999;-56
2022/04/09 13:16:54;;;;;;;;;;;;;;;;;;5056420;28;20269;-58
2022/04/09 13:19:19;;;;;;;;;;;;;;;;;;5056274;28;19916;-57
2022/04/09 13:21:44;;;;;;;;;;;;;;;;;;5071601;28;19909;-56
2022/04/09 13:24:09;;;;;;;;;;;;;;;;;;5056998;28;19916;-56
2022/04/09 13:26:34;;;;;;;;;;;;;;;;;;5072226;28;19909;-56
2022/04/09 13:29:00;;;;;;;;;;;;;;;;;;5051106;28;20391;-56
2022/04/09 13:31:30;;;;;;;;;;;;;;;;;;5036585;28;19913;-57
2022/04/09 13:33:56;;;;;;;;;;;;;;;;;;5050198;28;19917;-57
2022/04/09 13:36:21;;;;;;;;;;;;;;;;;;5036512;28;19913;-57
2022/04/09 13:38:46;;;;;;;;;;;;;;;;;;5051758;28;20004;-57
2022/04/09 13:41:16;;;;;;;;;;;;;;;;;;5051889;28;19945;-57
2022/04/09 13:43:41;;;;;;;;;;;;;;;;;;5068216;28;19908;-57
2022/04/09 13:46:06;;;;;;;;;;;;;;;;;;5076362;28;19932;-57
2022/04/09 13:48:31;;;;;;;;;;;;;;;;;;5076528;28;20007;-56
2022/04/09 13:50:57;;;;;;;;;;;;;;;;;;5075926;28;19908;-55
2022/04/09 13:53:22;;;;;;;;;;;;;;;;;;5076114;28;20399;-56
2022/04/09 13:55:47;;;;;;;;;;;;;;;;;;5075731;28;19919;-56
2022/04/09 13:58:13;;;;;;;;;;;;;;;;;;5075963;28;20419;-56
2022/04/09 14:00:38;;;;;;;;;;;;;;;;;;5075346;28;19928;-56
2022/04/09 14:03:03;;;;;;;;;;;;;;;;;;5074698;28;20301;-57
2022/04/09 14:05:28;;;;;;;;;;;;;;;;;;5075948;28;19915;-57
2022/04/09 14:07:54;;;;;;;;;;;;;;;;;;5056136;28;19908;-56
2022/04/09 14:10:20;;;;;;;;;;;;;;;;;;5055526;28;19951;-56
2022/04/09 14:12:46;;;;;;;;;;;;;;;;;;5055087;28;20295;-56
2022/04/09 14:15:11;;;;;;;;;;;;;;;;;;5055767;28;19917;-57
2022/04/09 14:17:36;;;;;;;;;;;;;;;;;;5054130;28;19912;-56
2022/04/09 14:20:02;;;;;;;;;;;;;;;;;;5055344;28;20357;-56
2022/04/09 14:22:27;;;;;;;;;;;;;;;;;;5038768;28;20433;-55
2022/04/09 14:24:53;;;;;;;;;;;;;;;;;;5035273;28;19909;-61
2022/04/09 14:27:18;;;;;;;;;;;;;;;;;;5035272;28;19913;-57
2022/04/09 14:29:43;;;;;;;;;;;;;;;;;;5034904;28;19931;-56
2022/04/09 14:32:08;;;;;;;;;;;;;;;;;;5035230;28;20214;-56
2022/04/09 14:34:33;;;;;;;;;;;;;;;;;;5050990;28;19909;-57
2022/04/09 14:36:59;;;;;;;;;;;;;;;;;;5071251;28;19919;-57
2022/04/09 14:39:24;;;;;;;;;;;;;;;;;;5041360;28;19995;-57
2022/04/09 14:41:49;;;;;;;;;;;;;;;;;;5037971;28;19920;-57
2022/04/09 14:44:14;;;;;;;;;;;;;;;;;;5070199;28;19955;-56
2022/04/09 14:46:40;;;;;;;;;;;;;;;;;;5055021;28;19959;-57
2022/04/09 14:49:06;;;;;;;;;;;;;;;;;;5055092;28;19919;-57
2022/04/09 14:51:31;;;;;;;;;;;;;;;;;;5069806;28;19908;-57
2022/04/09 14:53:57;;;;;;;;;;;;;;;;;;5054943;28;19912;-58
2022/04/09 14:56:22;;;;;;;;;;;;;;;;;;5055531;28;19913;-57
2022/04/09 14:58:47;;;;;;;;;;;;;;;;;;5069732;28;19916;-57
2022/04/09 15:01:12;;;;;;;;;;;;;;;;;;5054556;28;20379;-57
2022/04/09 15:03:38;;;;;;;;;;;;;;;;;;5078450;28;20262;-55
2022/04/09 15:06:03;;;;;;;;;;;;;;;;;;5032863;28;19905;-55
2022/04/09 15:08:28;;;;;;;;;;;;;;;;;;5054076;28;19913;-56
2022/04/09 15:10:53;;;;;;;;;;;;;;;;;;5051635;28;19992;-56
2022/04/09 15:13:19;;;;;;;;;;;;;;;;;;5068863;28;19970;-56
2022/04/09 15:15:46;;;;;;;;;;;;;;;;;;5053809;28;19913;-56
2022/04/09 15:18:11;;;;;;;;;;;;;;;;;;5054489;28;19908;-57
2022/04/09 15:20:37;;;;;;;;;;;;;;;;;;5054331;28;19912;-57
2022/04/09 15:23:02;;;;;;;;;;;;;;;;;;5067061;28;20288;-56
2022/04/09 15:25:27;;;;;;;;;;;;;;;;;;5067253;28;19913;-57
2022/04/09 15:27:52;;;;;;;;;;;;;;;;;;5054295;28;19995;-58
2022/04/09 15:30:18;;;;;;;;;;;;;;;;;;5053085;28;19956;-56
2022/04/09 15:32:43;;;;;;;;;;;;;;;;;;5054164;28;19908;-56
2022/04/09 15:35:08;;;;;;;;;;;;;;;;;;5053654;28;19913;-57
2022/04/09 15:37:34;;;;;;;;;;;;;;;;;;5053709;28;19909;-57
2022/04/09 15:39:59;;;;;;;;;;;;;;;;;;5053906;28;20289;-57
2022/04/09 15:42:25;;;;;;;;;;;;;;;;;;5069983;28;19909;-57
2022/04/09 15:44:50;;;;;;;;;;;;;;;;;;5053897;28;19955;-56
2022/04/09 15:47:16;;;;;;;;;;;;;;;;;;5054086;28;19967;-56
2022/04/09 15:49:41;;;;;;;;;;;;;;;;;;5053628;28;19909;-56
2022/04/09 15:52:06;;;;;;;;;;;;;;;;;;5053572;28;19987;-56
2022/04/09 15:54:31;;;;;;;;;;;;;;;;;;5060864;28;19913;-57
2022/04/09 15:56:57;;;;;;;;;;;;;;;;;;5031398;28;19916;-56
2022/04/09 15:59:22;;;;;;;;;;;;;;;;;;5048767;28;19909;-56
2022/04/09 16:01:47;;;;;;;;;;;;;;;;;;5033749;28;20179;-57
2022/04/09 16:04:12;;;;;;;;;;;;;;;;;;5033370;28;20313;-60
2022/04/09 16:06:38;;;;;;;;;;;;;;;;;;5033599;28;20369;-57
2022/04/09 16:09:03;;;;;;;;;;;;;;;;;;5038152;28;19936;-56
2022/04/09 16:11:28;;;;;;;;;;;;;;;;;;5051505;28;20342;-56
2022/04/09 16:13:55;;;;;;;;;;;;;;;;;;5053237;28;19990;-58
2022/04/09 16:16:20;;;;;;;;;;;;;;;;;;5053399;28;19909;-57
2022/04/09 16:18:45;;;;;;;;;;;;;;;;;;5053271;28;20375;-57
2022/04/09 16:21:10;;;;;;;;;;;;;;;;;;5054139;28;20400;-57
2022/04/09 16:23:35;;;;;;;;;;;;;;;;;;5050671;28;20343;-59
2022/04/09 16:26:01;;;;;;;;;;;;;;;;;;5054194;28;20367;-57
2022/04/09 16:28:29;;;;;;;;;;;;;;;;;;5058009;28;19913;-57
2022/04/09 16:30:54;;;;;;;;;;;;;;;;;;5057109;28;19956;-58
2022/04/09 16:33:19;;;;;;;;;;;;;;;;;;5072676;28;19963;-58
2022/04/09 16:35:45;;;;;;;;;;;;;;;;;;5057204;28;19913;-58
2022/04/09 16:38:10;;;;;;;;;;;;;;;;;;5057930;28;19962;-58